createdAt,value
2019-04-27T00:01:13.792Z,10.20
2019-04-27T00:04:16.230Z,10.00
2019-04-27T00:06:47.246Z,9.80
2019-04-27T00:09:36.704Z,9.70
2019-04-27T00:12:10.292Z,9.60
2019-04-27T00:14:43.899Z,9.50
2019-04-27T00:17:45.465Z,9.50
2019-04-27T00:20:34.493Z,9.40
2019-04-27T00:23:09.548Z,9.20
2019-04-27T00:25:41.574Z,9.10
2019-04-27T00:28:13.835Z,9.10
2019-04-27T00:30:46.452Z,9.00
2019-04-27T00:33:19.761Z,9.00
2019-04-27T00:35:56.846Z,9.00
2019-04-27T00:38:35.833Z,8.90
2019-04-27T00:41:14.070Z,9.00
2019-04-27T00:43:46.957Z,9.00
2019-04-27T00:46:18.962Z,9.00
2019-04-27T00:48:53.438Z,9.00
2019-04-27T00:51:25.356Z,8.90
2019-04-27T00:53:57.637Z,8.80
2019-04-27T00:57:07.963Z,8.80
2019-04-27T01:00:00.169Z,8.80
2019-04-27T01:03:07.576Z,8.80
2019-04-27T01:05:39.776Z,8.70
2019-04-27T01:08:13.782Z,8.70
2019-04-27T01:10:46.005Z,8.50
2019-04-27T01:13:20.236Z,8.40
2019-04-27T01:15:54.158Z,8.30
2019-04-27T01:18:30.353Z,8.30
2019-04-27T01:21:06.979Z,8.20
2019-04-27T01:23:40.820Z,8.30
2019-04-27T01:26:39.537Z,8.30
2019-04-27T01:29:16.948Z,8.30
2019-04-27T01:31:51.778Z,8.30
2019-04-27T01:34:24.148Z,8.30
2019-04-27T01:36:56.724Z,8.20
2019-04-27T01:39:28.939Z,8.20
2019-04-27T01:42:01.107Z,8.10
2019-04-27T01:44:33.049Z,8.10
2019-04-27T01:47:05.597Z,8.00
2019-04-27T01:49:39.600Z,8.10
2019-04-27T01:52:12.340Z,8.10
2019-04-27T01:54:44.038Z,8.10
2019-04-27T01:57:16.321Z,8.00
2019-04-27T01:59:48.907Z,8.00
2019-04-27T02:02:34.623Z,8.00
2019-04-27T02:05:29.677Z,7.90
2019-04-27T02:08:02.006Z,7.90
2019-04-27T02:10:34.104Z,7.90
2019-04-27T02:13:06.098Z,7.90
2019-04-27T02:15:39.609Z,7.90
2019-04-27T02:18:12.043Z,7.90
2019-04-27T02:20:44.573Z,7.90
2019-04-27T02:23:19.708Z,8.10
2019-04-27T02:25:51.743Z,8.10
2019-04-27T02:28:33.782Z,8.20
2019-04-27T02:31:29.522Z,8.30
2019-04-27T02:34:09.554Z,8.30
2019-04-27T02:36:42.670Z,8.30
2019-04-27T02:39:15.275Z,8.30
2019-04-27T02:41:49.862Z,8.20
2019-04-27T02:44:26.083Z,8.20
2019-04-27T02:47:00.396Z,8.10
2019-04-27T02:49:33.248Z,8.10
2019-04-27T02:52:24.548Z,8.10
2019-04-27T02:54:59.107Z,8.00
2019-04-27T02:57:30.494Z,8.10
2019-04-27T03:00:02.938Z,8.20
2019-04-27T03:02:43.260Z,8.30
2019-04-27T03:05:22.577Z,8.40
2019-04-27T03:07:54.516Z,8.50
2019-04-27T03:10:29.742Z,8.60
2019-04-27T03:13:11.089Z,8.60
2019-04-27T03:16:00.720Z,8.70
2019-04-27T03:19:10.279Z,8.60
2019-04-27T03:21:45.261Z,8.60
2019-04-27T03:24:19.969Z,8.50
2019-04-27T03:26:56.825Z,8.30
2019-04-27T03:29:32.229Z,8.20
2019-04-27T03:32:04.633Z,8.10
2019-04-27T03:34:36.850Z,8.00
2019-04-27T03:37:10.289Z,8.00
2019-04-27T03:39:42.855Z,7.90
2019-04-27T03:42:15.933Z,8.00
2019-04-27T03:44:50.300Z,8.10
2019-04-27T03:47:21.861Z,8.10
2019-04-27T03:49:54.261Z,8.10
2019-04-27T03:52:32.054Z,8.00
2019-04-27T03:55:19.837Z,8.00
2019-04-27T03:58:21.685Z,7.90
2019-04-27T04:00:52.465Z,7.90
2019-04-27T04:03:26.185Z,8.00
2019-04-27T04:06:00.257Z,8.00
2019-04-27T04:08:31.810Z,8.10
2019-04-27T04:11:10.532Z,8.10
2019-04-27T04:13:49.463Z,8.00
2019-04-27T04:16:40.592Z,8.10
2019-04-27T04:19:13.108Z,8.30
2019-04-27T04:21:45.254Z,8.40
2019-04-27T04:24:19.962Z,8.40
2019-04-27T04:26:53.808Z,8.40
2019-04-27T04:29:25.694Z,8.50
2019-04-27T04:32:00.173Z,8.50
2019-04-27T04:34:32.787Z,8.50
2019-04-27T04:37:05.129Z,8.70
2019-04-27T04:39:40.076Z,8.70
2019-04-27T04:42:39.228Z,8.70
2019-04-27T04:45:39.416Z,8.70
2019-04-27T04:48:14.571Z,8.70
2019-04-27T04:50:50.022Z,8.80
2019-04-27T04:53:22.226Z,8.90
2019-04-27T04:55:54.832Z,9.00
2019-04-27T04:58:26.778Z,9.10
2019-04-27T05:01:01.719Z,9.10
2019-04-27T05:03:33.672Z,9.20
2019-04-27T05:06:09.222Z,9.30
2019-04-27T05:08:41.139Z,9.30
2019-04-27T05:11:13.708Z,9.50
2019-04-27T05:13:46.719Z,9.60
2019-04-27T05:16:19.678Z,9.80
2019-04-27T05:18:51.524Z,9.90
2019-04-27T05:21:31.341Z,10.00
2019-04-27T05:24:04.609Z,10.20
2019-04-27T05:26:37.298Z,10.30
2019-04-27T05:29:09.307Z,10.40
2019-04-27T05:31:41.573Z,10.40
2019-04-27T05:34:13.817Z,10.50
2019-04-27T05:36:48.981Z,10.40
2019-04-27T05:39:24.791Z,10.40
2019-04-27T05:41:53.269Z,10.50
2019-04-27T05:44:46.682Z,10.60
2019-04-27T05:47:28.926Z,10.70
2019-04-27T05:50:06.276Z,10.70
2019-04-27T05:52:38.678Z,10.80
2019-04-27T05:55:12.846Z,10.80
2019-04-27T05:57:45.000Z,10.70
2019-04-27T06:00:19.266Z,10.60
2019-04-27T06:02:53.916Z,10.60
2019-04-27T06:05:26.660Z,10.50
2019-04-27T06:07:59.730Z,10.40
2019-04-27T06:10:31.823Z,10.40
2019-04-27T06:13:05.647Z,10.30
2019-04-27T06:15:38.953Z,10.30
2019-04-27T06:18:11.302Z,10.30
2019-04-27T06:20:53.304Z,10.20
2019-04-27T06:23:18.637Z,10.10
2019-04-27T06:25:50.985Z,10.10
2019-04-27T06:28:24.624Z,10.10
2019-04-27T06:30:57.281Z,10.10
2019-04-27T06:33:34.242Z,10.10
2019-04-27T06:36:04.653Z,10.10
2019-04-27T06:38:39.933Z,10.10
2019-04-27T06:41:12.827Z,10.10
2019-04-27T06:43:44.919Z,10.10
2019-04-27T06:46:20.045Z,10.10
2019-04-27T06:48:54.570Z,10.20
2019-04-27T06:51:28.538Z,10.20
2019-04-27T06:54:00.769Z,10.30
2019-04-27T06:56:33.928Z,10.30
2019-04-27T06:59:08.696Z,10.30
2019-04-27T07:01:40.090Z,10.40
2019-04-27T07:04:13.543Z,10.40
2019-04-27T07:06:54.102Z,10.50
2019-04-27T07:09:20.441Z,10.50
2019-04-27T07:11:53.447Z,10.50
2019-04-27T07:14:29.456Z,10.60
2019-04-27T07:17:03.772Z,10.60
2019-04-27T07:19:36.877Z,10.60
2019-04-27T07:22:11.397Z,10.60
2019-04-27T07:24:43.038Z,10.70
2019-04-27T07:27:20.961Z,10.60
2019-04-27T07:29:53.674Z,10.60
2019-04-27T07:32:25.352Z,10.60
2019-04-27T07:34:58.615Z,10.60
2019-04-27T07:37:31.251Z,10.70
2019-04-27T07:40:04.054Z,10.70
2019-04-27T07:42:40.825Z,10.70
2019-04-27T07:45:17.058Z,10.80
2019-04-27T07:47:49.950Z,10.90
2019-04-27T07:50:22.098Z,11.00
2019-04-27T07:52:55.077Z,11.00
2019-04-27T07:55:28.787Z,11.10
2019-04-27T07:58:01.366Z,11.10
2019-04-27T08:00:35.881Z,11.20
2019-04-27T08:03:10.031Z,11.30
2019-04-27T08:05:42.890Z,11.30
2019-04-27T08:08:15.223Z,11.30
2019-04-27T08:10:50.134Z,11.20
2019-04-27T08:13:23.733Z,11.20
2019-04-27T08:15:58.913Z,11.20
2019-04-27T08:18:31.582Z,11.10
2019-04-27T08:21:04.560Z,11.10
2019-04-27T08:23:39.442Z,11.00
2019-04-27T08:26:28.896Z,11.00
2019-04-27T08:29:20.915Z,11.00
2019-04-27T08:31:59.742Z,10.90
2019-04-27T08:34:39.744Z,10.90
2019-04-27T08:37:16.013Z,10.80
2019-04-27T08:39:50.795Z,10.70
2019-04-27T08:42:23.085Z,10.70
2019-04-27T08:44:55.715Z,10.70
2019-04-27T08:47:29.359Z,10.70
2019-04-27T08:50:01.683Z,10.70
2019-04-27T08:52:33.894Z,10.80
2019-04-27T08:55:07.006Z,10.80
2019-04-27T08:57:39.843Z,10.90
2019-04-27T09:00:12.163Z,10.80
2019-04-27T09:02:47.254Z,10.90
2019-04-27T09:05:25.979Z,11.00
2019-04-27T09:08:31.541Z,11.20
2019-04-27T09:11:45.314Z,11.40
2019-04-27T09:14:23.451Z,11.40
2019-04-27T09:17:05.871Z,11.50
2019-04-27T09:19:50.421Z,11.50
2019-04-27T09:22:22.970Z,11.50
2019-04-27T09:24:54.767Z,11.50
2019-04-27T09:27:28.899Z,11.40
2019-04-27T09:30:01.812Z,11.40
2019-04-27T09:32:35.877Z,11.40
2019-04-27T09:35:09.168Z,11.30
2019-04-27T09:37:41.844Z,11.30
2019-04-27T09:40:14.851Z,11.00
2019-04-27T09:42:49.750Z,10.60
2019-04-27T09:45:22.504Z,10.40
2019-04-27T09:47:56.270Z,10.10
2019-04-27T09:50:29.381Z,9.90
2019-04-27T09:53:03.345Z,9.70
2019-04-27T09:55:36.855Z,9.80
2019-04-27T09:58:09.201Z,10.00
2019-04-27T10:00:41.904Z,10.30
2019-04-27T10:03:15.386Z,10.50
2019-04-27T10:05:48.177Z,10.50
2019-04-27T10:08:26.169Z,10.50
2019-04-27T10:11:06.044Z,10.50
2019-04-27T10:13:40.239Z,10.70
2019-04-27T10:16:13.647Z,10.70
2019-04-27T10:18:49.268Z,10.60
2019-04-27T10:21:26.321Z,10.50
2019-04-27T10:23:59.148Z,10.40
2019-04-27T10:26:34.086Z,10.50
2019-04-27T10:29:06.917Z,10.50
2019-04-27T10:31:40.951Z,10.40
2019-04-27T10:34:16.144Z,10.40
2019-04-27T10:36:50.667Z,10.50
2019-04-27T10:39:25.706Z,10.50
2019-04-27T10:42:06.896Z,10.40
2019-04-27T10:44:39.813Z,10.40
2019-04-27T10:47:15.686Z,10.40
2019-04-27T10:49:50.702Z,10.30
2019-04-27T10:52:24.608Z,10.40
2019-04-27T10:54:57.477Z,10.40
2019-04-27T10:57:30.636Z,10.40
2019-04-27T11:00:03.258Z,10.50
2019-04-27T11:02:39.797Z,10.70
2019-04-27T11:05:19.344Z,10.80
2019-04-27T11:07:56.541Z,10.70
2019-04-27T11:10:28.569Z,10.70
2019-04-27T11:13:00.675Z,10.60
2019-04-27T11:15:33.080Z,10.30
2019-04-27T11:18:06.330Z,10.00
2019-04-27T11:20:40.662Z,9.80
2019-04-27T11:23:13.082Z,9.50
2019-04-27T11:25:46.811Z,9.50
2019-04-27T11:28:20.329Z,9.50
2019-04-27T11:30:53.760Z,9.50
2019-04-27T11:33:26.899Z,9.50
2019-04-27T11:36:19.669Z,9.60
2019-04-27T11:38:54.138Z,9.60
2019-04-27T11:41:26.876Z,9.60
2019-04-27T11:44:00.441Z,9.60
2019-04-27T11:46:36.255Z,9.30
2019-04-27T11:49:08.456Z,9.10
2019-04-27T11:51:40.726Z,9.10
2019-04-27T11:54:13.618Z,9.10
2019-04-27T11:56:47.286Z,9.00
2019-04-27T11:59:21.303Z,9.20
2019-04-27T12:02:04.553Z,9.60
2019-04-27T12:04:38.293Z,10.20
2019-04-27T12:07:16.404Z,10.90
2019-04-27T12:09:48.909Z,11.90
2019-04-27T12:12:22.803Z,12.40
2019-04-27T12:14:56.206Z,12.40
2019-04-27T12:17:29.267Z,12.20
2019-04-27T12:20:02.804Z,12.10
2019-04-27T12:22:35.517Z,12.00
2019-04-27T12:25:10.190Z,12.10
2019-04-27T12:27:58.841Z,12.10
2019-04-27T12:30:37.049Z,12.10
2019-04-27T12:33:15.631Z,12.20
2019-04-27T12:35:59.228Z,12.20
2019-04-27T12:38:31.178Z,11.90
2019-04-27T12:41:03.690Z,11.90
2019-04-27T12:43:37.503Z,12.10
2019-04-27T12:46:10.942Z,13.00
2019-04-27T12:48:48.747Z,14.80
2019-04-27T12:51:22.555Z,15.80
2019-04-27T12:54:13.457Z,15.70
2019-04-27T12:57:11.790Z,14.90
2019-04-27T13:00:02.554Z,14.90
2019-04-27T13:02:38.914Z,15.60
2019-04-27T13:05:15.762Z,16.50
2019-04-27T13:07:48.278Z,17.40
2019-04-27T13:10:21.667Z,18.30
2019-04-27T13:12:56.166Z,19.20
2019-04-27T13:15:28.312Z,19.40
2019-04-27T13:18:02.748Z,19.80
2019-04-27T13:20:35.904Z,19.40
2019-04-27T13:23:08.102Z,18.30
2019-04-27T13:25:40.590Z,18.00
2019-04-27T13:28:14.298Z,18.10
2019-04-27T13:30:48.373Z,18.20
2019-04-27T13:33:20.653Z,18.50
2019-04-27T13:35:52.723Z,19.30
2019-04-27T13:38:26.538Z,19.50
2019-04-27T13:41:08.459Z,19.10
2019-04-27T13:43:43.008Z,19.40
2019-04-27T13:46:34.835Z,18.50
2019-04-27T13:49:33.033Z,18.40
2019-04-27T13:52:29.936Z,18.00
2019-04-27T13:55:01.990Z,18.10
2019-04-27T13:57:37.180Z,17.30
2019-04-27T14:00:09.624Z,16.60
2019-04-27T14:02:44.117Z,16.00
2019-04-27T14:05:16.389Z,15.20
2019-04-27T14:07:49.440Z,14.20
2019-04-27T14:10:21.644Z,13.70
2019-04-27T14:12:54.105Z,13.30
2019-04-27T14:15:28.956Z,12.40
2019-04-27T14:18:02.923Z,11.70
2019-04-27T14:20:35.657Z,11.70
2019-04-27T14:23:13.595Z,12.00
2019-04-27T14:25:47.504Z,12.50
2019-04-27T14:28:19.854Z,13.90
2019-04-27T14:31:01.821Z,15.50
2019-04-27T14:33:33.958Z,17.10
2019-04-27T14:36:08.261Z,18.00
2019-04-27T14:38:41.039Z,18.40
2019-04-27T14:41:13.334Z,18.90
2019-04-27T14:43:48.271Z,19.00
2019-04-27T14:46:23.747Z,19.10
2019-04-27T14:48:55.784Z,19.60
2019-04-27T14:51:27.885Z,20.00
2019-04-27T14:54:00.312Z,20.80
2019-04-27T14:56:32.784Z,20.40
2019-04-27T14:59:04.980Z,19.30
2019-04-27T15:01:41.644Z,17.70
2019-04-27T15:04:16.370Z,16.30
2019-04-27T15:06:48.629Z,15.40
2019-04-27T15:09:21.506Z,14.40
2019-04-27T15:11:56.473Z,13.60
2019-04-27T15:14:32.112Z,13.20
2019-04-27T15:17:07.128Z,13.70
2019-04-27T15:19:48.532Z,15.20
2019-04-27T15:22:24.745Z,16.70
2019-04-27T15:25:12.455Z,17.90
2019-04-27T15:27:42.163Z,17.60
2019-04-27T15:30:22.183Z,16.60
2019-04-27T15:33:26.401Z,15.80
2019-04-27T15:36:07.620Z,15.10
2019-04-27T15:38:49.245Z,15.30
2019-04-27T15:41:34.844Z,15.60
2019-04-27T15:44:09.467Z,15.30
2019-04-27T15:46:41.183Z,15.50
2019-04-27T15:49:15.624Z,15.50
2019-04-27T15:51:50.615Z,15.00
2019-04-27T15:54:28.692Z,14.40
2019-04-27T15:56:58.434Z,14.40
2019-04-27T15:59:39.424Z,14.20
2019-04-27T16:02:12.284Z,14.00
2019-04-27T16:04:44.489Z,14.00
2019-04-27T16:07:18.058Z,13.90
2019-04-27T16:09:48.802Z,13.70
2019-04-27T16:12:21.466Z,13.80
2019-04-27T16:14:54.114Z,13.70
2019-04-27T16:17:28.650Z,13.40
2019-04-27T16:20:00.538Z,13.30
2019-04-27T16:22:37.289Z,13.20
2019-04-27T16:25:18.526Z,13.00
2019-04-27T16:27:57.814Z,12.90
2019-04-27T16:30:30.102Z,12.70
2019-04-27T16:33:03.669Z,12.60
2019-04-27T16:35:39.373Z,12.70
2019-04-27T16:38:36.751Z,12.80
2019-04-27T16:41:09.705Z,13.00
2019-04-27T16:43:45.519Z,13.30
2019-04-27T16:46:21.449Z,13.70
2019-04-27T16:48:55.127Z,14.70
2019-04-27T16:51:35.920Z,16.00
2019-04-27T16:54:11.166Z,16.80
2019-04-27T16:56:45.821Z,16.40
2019-04-27T16:59:39.887Z,15.60
2019-04-27T17:01:58.338Z,15.10
2019-04-27T17:04:35.278Z,14.50
2019-04-27T17:07:11.548Z,14.30
2019-04-27T17:09:51.028Z,13.90
2019-04-27T17:12:41.013Z,13.60
2019-04-27T17:15:34.501Z,13.20
2019-04-27T17:18:35.542Z,12.90
2019-04-27T17:21:18.595Z,12.60
2019-04-27T17:24:02.786Z,12.30
2019-04-27T17:26:43.554Z,12.20
2019-04-27T17:29:22.685Z,12.00
2019-04-27T17:32:01.453Z,11.70
2019-04-27T17:34:39.741Z,11.30
2019-04-27T17:37:17.655Z,10.40
2019-04-27T17:39:58.093Z,9.80
2019-04-27T17:42:37.213Z,9.40
2019-04-27T17:45:23.262Z,9.20
2019-04-27T17:48:06.859Z,9.00
2019-04-27T17:50:55.958Z,8.90
2019-04-27T17:53:45.862Z,8.80
2019-04-27T17:56:34.091Z,8.70
2019-04-27T17:59:03.634Z,8.70
2019-04-27T18:01:40.291Z,8.70
2019-04-27T18:04:18.509Z,8.70
2019-04-27T18:06:59.369Z,8.70
2019-04-27T18:09:33.459Z,8.80
2019-04-27T18:12:18.196Z,8.70
2019-04-27T18:15:00.339Z,8.70
2019-04-27T18:17:49.920Z,8.60
2019-04-27T18:20:35.866Z,8.70
2019-04-27T18:23:18.576Z,8.70
2019-04-27T18:26:04.141Z,8.70
2019-04-27T18:28:45.782Z,8.80
2019-04-27T18:31:28.558Z,8.90
2019-04-27T18:34:08.610Z,9.20
2019-04-27T18:36:43.830Z,9.40
2019-04-27T18:39:19.988Z,9.40
2019-04-27T18:41:54.841Z,9.40
2019-04-27T18:44:31.862Z,9.30
2019-04-27T18:47:08.398Z,9.30
2019-04-27T18:50:14.804Z,9.20
2019-04-27T18:52:58.207Z,9.20
2019-04-27T18:55:35.025Z,9.20
2019-04-27T18:58:10.790Z,9.10
2019-04-27T19:00:48.436Z,9.10
2019-04-27T19:03:24.878Z,9.00
2019-04-27T19:06:00.648Z,9.00
2019-04-27T19:08:38.665Z,9.00
2019-04-27T19:11:15.645Z,9.00
2019-04-27T19:13:51.141Z,8.90
2019-04-27T19:16:25.113Z,8.90
2019-04-27T19:19:01.452Z,8.90
2019-04-27T19:21:39.801Z,8.80
2019-04-27T19:24:19.051Z,8.80
2019-04-27T19:26:59.065Z,8.80
2019-04-27T19:29:44.268Z,8.70
2019-04-27T19:32:28.160Z,8.70
2019-04-27T19:35:04.809Z,8.70
2019-04-27T19:37:43.904Z,8.60
2019-04-27T19:40:21.067Z,8.60
2019-04-27T19:43:01.366Z,8.70
2019-04-27T19:45:38.814Z,8.60
2019-04-27T19:48:12.218Z,8.60
2019-04-27T19:50:46.065Z,8.60
2019-04-27T19:53:29.040Z,8.60
2019-04-27T20:03:02.712Z,8.70
2019-04-27T20:05:38.886Z,8.70
2019-04-27T20:08:20.397Z,8.70
2019-04-27T20:10:58.700Z,8.80
2019-04-27T20:13:33.106Z,8.80
2019-04-27T20:16:06.144Z,8.80
2019-04-27T20:18:46.240Z,8.70
2019-04-27T20:21:23.037Z,8.80
2019-04-27T20:23:56.137Z,8.70
2019-04-27T20:26:31.761Z,8.80
2019-04-27T20:29:11.666Z,8.80
2019-04-27T20:31:44.538Z,8.80
2019-04-27T20:34:20.940Z,8.90
2019-04-27T20:36:56.611Z,8.90
2019-04-27T20:39:30.274Z,8.90
2019-04-27T20:42:12.618Z,8.80
2019-04-27T20:44:46.235Z,8.90
2019-04-27T20:47:19.684Z,8.90
2019-04-27T20:50:11.871Z,9.00
2019-04-27T20:53:12.613Z,9.00
2019-04-27T20:55:53.372Z,8.90
2019-04-27T20:58:28.808Z,8.90
2019-04-27T21:01:01.766Z,8.90
2019-04-27T21:03:43.428Z,8.90
2019-04-27T21:06:38.030Z,9.00
2019-04-27T21:09:17.430Z,8.90
2019-04-27T21:11:54.489Z,8.90
2019-04-27T21:14:28.666Z,8.90
2019-04-27T21:17:07.788Z,8.90
2019-04-27T21:19:42.604Z,8.90
2019-04-27T21:22:17.369Z,8.90
2019-04-27T21:24:53.408Z,8.90
2019-04-27T21:27:33.372Z,8.90
2019-04-27T21:30:11.407Z,9.00
2019-04-27T21:32:46.042Z,9.00
2019-04-27T21:35:25.115Z,9.00
2019-04-27T21:38:06.214Z,9.00
2019-04-27T21:40:42.212Z,9.00
2019-04-27T21:43:21.781Z,9.00
2019-04-27T21:45:59.207Z,8.90
2019-04-27T21:48:34.924Z,8.80
2019-04-27T21:51:11.850Z,8.70
2019-04-27T21:54:09.264Z,8.70
2019-04-27T21:56:41.751Z,8.80
2019-04-27T21:59:14.309Z,8.90
2019-04-27T22:02:02.951Z,8.90
2019-04-27T22:04:47.702Z,9.00
2019-04-27T22:07:21.591Z,9.00
2019-04-27T22:09:55.073Z,9.00
2019-04-27T22:12:32.971Z,9.00
2019-04-27T22:15:11.357Z,9.00
2019-04-27T22:17:48.453Z,8.90
2019-04-27T22:20:24.504Z,9.00
2019-04-27T22:23:01.741Z,9.00
2019-04-27T22:25:36.445Z,9.00
2019-04-27T22:28:11.556Z,9.00
2019-04-27T22:30:47.465Z,8.90
2019-04-27T22:33:27.318Z,8.90
2019-04-27T22:36:01.788Z,8.90
2019-04-27T22:38:41.403Z,8.90
2019-04-27T22:41:31.257Z,9.00
2019-04-27T22:44:35.436Z,9.00
2019-04-27T22:47:24.038Z,9.00
2019-04-27T22:50:00.068Z,9.00
2019-04-27T22:52:37.519Z,9.10
2019-04-27T22:55:11.792Z,9.10
2019-04-27T22:57:52.985Z,9.10
2019-04-27T23:00:46.898Z,9.00
2019-04-27T23:03:31.297Z,9.00
2019-04-27T23:06:11.317Z,9.00
2019-04-27T23:08:44.796Z,9.00
2019-04-27T23:11:24.925Z,9.00
2019-04-27T23:14:01.195Z,8.90
2019-04-27T23:16:36.724Z,8.90
2019-04-27T23:19:16.365Z,9.00
2019-04-27T23:21:52.852Z,9.00
2019-04-27T23:24:41.460Z,8.90
2019-04-27T23:27:15.382Z,9.00
2019-04-27T23:29:49.052Z,9.00
2019-04-27T23:32:37.275Z,9.00
2019-04-27T23:35:13.282Z,9.00
2019-04-27T23:37:58.538Z,9.00
2019-04-27T23:40:34.969Z,9.00
2019-04-27T23:43:11.522Z,9.00
2019-04-27T23:45:48.597Z,9.00
2019-04-27T23:48:31.973Z,8.90
2019-04-27T23:51:19.849Z,8.80
2019-04-27T23:53:59.158Z,8.80
2019-04-27T23:56:34.652Z,8.80
2019-04-27T23:59:23.775Z,8.80
